Terminal Aerodrome Forecast
Issued by NWS Albany, NY

Home | Current Version | Previous Version | Text Only | Print | Product List | Glossary On
Versions: 1 2 3 4 5 6 7 8 9 10 11 12 13 14 15 16 17 18
284
FTUS41 KALY 081141
TAFPOU
TAF
KPOU 081141Z 0812/0912 00000KT P6SM BKN100
     FM081500 24006KT P6SM OVC060
     FM081900 27011G18KT P6SM BKN050
     FM090000 27009G15KT P6SM SCT050
     FM090500 28008KT P6SM SKC=

USA.gov is the U.S. government's official web portal to all federal, state and local government web resources and services.